sensor_id;sensor_type;location;lat;lon;timestamp;P1;durP1;ratioP1;P2;durP2;ratioP2
70780;SDS011;59514;48.810;2.134;2022-07-30T00:01:01;3.45;;;1.92;;
70780;SDS011;59514;48.810;2.134;2022-07-30T00:03:27;3.10;;;1.95;;
70780;SDS011;59514;48.810;2.134;2022-07-30T00:05:52;2.90;;;1.85;;
70780;SDS011;59514;48.810;2.134;2022-07-30T00:08:18;3.05;;;1.73;;
70780;SDS011;59514;48.810;2.134;2022-07-30T00:10:44;5.65;;;1.70;;
70780;SDS011;59514;48.810;2.134;2022-07-30T00:13:10;4.28;;;1.45;;
70780;SDS011;59514;48.810;2.134;2022-07-30T00:15:35;1.67;;;1.58;;
70780;SDS011;59514;48.810;2.134;2022-07-30T00:18:01;3.05;;;1.88;;
70780;SDS011;59514;48.810;2.134;2022-07-30T00:20:26;3.60;;;1.77;;
70780;SDS011;59514;48.810;2.134;2022-07-30T00:22:52;2.30;;;1.70;;
70780;SDS011;59514;48.810;2.134;2022-07-30T00:25:17;1.63;;;1.50;;
70780;SDS011;59514;48.810;2.134;2022-07-30T00:27:43;2.72;;;1.67;;
70780;SDS011;59514;48.810;2.134;2022-07-30T00:30:09;4.10;;;1.40;;
70780;SDS011;59514;48.810;2.134;2022-07-30T00:32:35;2.97;;;1.52;;
70780;SDS011;59514;48.810;2.134;2022-07-30T00:35:02;2.92;;;1.80;;
70780;SDS011;59514;48.810;2.134;2022-07-30T00:37:27;3.45;;;1.60;;
70780;SDS011;59514;48.810;2.134;2022-07-30T00:39:53;2.40;;;1.80;;
70780;SDS011;59514;48.810;2.134;2022-07-30T00:42:18;2.53;;;1.88;;
70780;SDS011;59514;48.810;2.134;2022-07-30T00:44:53;2.63;;;1.70;;
70780;SDS011;59514;48.810;2.134;2022-07-30T00:47:18;2.33;;;1.60;;
70780;SDS011;59514;48.810;2.134;2022-07-30T00:49:44;1.88;;;1.63;;
70780;SDS011;59514;48.810;2.134;2022-07-30T00:52:10;2.38;;;1.60;;
70780;SDS011;59514;48.810;2.134;2022-07-30T00:54:35;4.25;;;1.80;;
70780;SDS011;59514;48.810;2.134;2022-07-30T00:57:01;3.35;;;2.25;;
70780;SDS011;59514;48.810;2.134;2022-07-30T00:59:26;5.60;;;1.90;;
70780;SDS011;59514;48.810;2.134;2022-07-30T01:01:52;2.20;;;1.75;;
70780;SDS011;59514;48.810;2.134;2022-07-30T01:04:18;1.55;;;1.42;;
70780;SDS011;59514;48.810;2.134;2022-07-30T01:06:43;2.90;;;1.52;;
70780;SDS011;59514;48.810;2.134;2022-07-30T01:09:09;3.35;;;2.08;;
70780;SDS011;59514;48.810;2.134;2022-07-30T01:11:35;2.53;;;1.50;;
70780;SDS011;59514;48.810;2.134;2022-07-30T01:14:02;1.60;;;1.50;;
70780;SDS011;59514;48.810;2.134;2022-07-30T01:16:29;4.22;;;1.50;;
70780;SDS011;59514;48.810;2.134;2022-07-30T01:18:55;2.25;;;1.52;;
70780;SDS011;59514;48.810;2.134;2022-07-30T01:21:43;2.15;;;1.58;;
70780;SDS011;59514;48.810;2.134;2022-07-30T01:24:21;4.28;;;1.73;;
70780;SDS011;59514;48.810;2.134;2022-07-30T01:26:47;2.45;;;1.90;;
70780;SDS011;59514;48.810;2.134;2022-07-30T01:29:14;5.40;;;1.80;;
70780;SDS011;59514;48.810;2.134;2022-07-30T01:31:41;2.05;;;1.45;;
70780;SDS011;59514;48.810;2.134;2022-07-30T01:34:08;3.83;;;1.80;;
70780;SDS011;59514;48.810;2.134;2022-07-30T01:36:38;3.35;;;1.70;;
70780;SDS011;59514;48.810;2.134;2022-07-30T01:39:05;3.05;;;1.70;;
70780;SDS011;59514;48.810;2.134;2022-07-30T01:41:31;3.50;;;1.58;;
70780;SDS011;59514;48.810;2.134;2022-07-30T01:43:56;2.58;;;1.73;;
70780;SDS011;59514;48.810;2.134;2022-07-30T01:46:22;1.70;;;1.60;;
70780;SDS011;59514;48.810;2.134;2022-07-30T01:48:49;4.25;;;1.50;;
70780;SDS011;59514;48.810;2.134;2022-07-30T01:51:15;4.13;;;2.05;;
70780;SDS011;59514;48.810;2.134;2022-07-30T01:53:43;3.47;;;1.52;;
70780;SDS011;59514;48.810;2.134;2022-07-30T01:56:10;3.05;;;1.80;;
70780;SDS011;59514;48.810;2.134;2022-07-30T01:58:38;3.83;;;1.65;;
70780;SDS011;59514;48.810;2.134;2022-07-30T02:01:05;2.50;;;1.50;;
70780;SDS011;59514;48.810;2.134;2022-07-30T02:03:31;3.83;;;1.75;;
70780;SDS011;59514;48.810;2.134;2022-07-30T02:05:59;3.42;;;1.60;;
70780;SDS011;59514;48.810;2.134;2022-07-30T02:11:09;4.13;;;1.80;;
70780;SDS011;59514;48.810;2.134;2022-07-30T02:13:40;1.92;;;1.55;;
70780;SDS011;59514;48.810;2.134;2022-07-30T02:16:21;3.03;;;1.80;;
70780;SDS011;59514;48.810;2.134;2022-07-30T02:18:56;2.60;;;1.65;;
70780;SDS011;59514;48.810;2.134;2022-07-30T02:21:31;2.92;;;2.17;;
70780;SDS011;59514;48.810;2.134;2022-07-30T02:24:01;3.43;;;1.90;;
70780;SDS011;59514;48.810;2.134;2022-07-30T02:26:30;2.28;;;1.65;;
70780;SDS011;59514;48.810;2.134;2022-07-30T02:28:58;4.45;;;1.92;;
70780;SDS011;59514;48.810;2.134;2022-07-30T02:31:26;2.55;;;1.65;;
70780;SDS011;59514;48.810;2.134;2022-07-30T02:33:54;4.53;;;1.65;;
70780;SDS011;59514;48.810;2.134;2022-07-30T02:36:22;4.15;;;1.95;;
70780;SDS011;59514;48.810;2.134;2022-07-30T02:38:49;2.92;;;1.50;;
70780;SDS011;59514;48.810;2.134;2022-07-30T02:41:16;3.00;;;1.73;;
70780;SDS011;59514;48.810;2.134;2022-07-30T02:43:44;2.28;;;1.63;;
70780;SDS011;59514;48.810;2.134;2022-07-30T02:46:12;4.25;;;1.73;;
70780;SDS011;59514;48.810;2.134;2022-07-30T02:48:41;3.78;;;2.00;;
70780;SDS011;59514;48.810;2.134;2022-07-30T02:51:09;2.88;;;1.83;;
70780;SDS011;59514;48.810;2.134;2022-07-30T02:53:36;2.22;;;1.75;;
70780;SDS011;59514;48.810;2.134;2022-07-30T02:56:02;2.25;;;1.90;;
70780;SDS011;59514;48.810;2.134;2022-07-30T02:58:30;3.13;;;1.80;;
70780;SDS011;59514;48.810;2.134;2022-07-30T03:00:58;3.13;;;1.80;;
70780;SDS011;59514;48.810;2.134;2022-07-30T03:03:26;2.63;;;1.70;;
70780;SDS011;59514;48.810;2.134;2022-07-30T03:05:53;4.75;;;2.00;;
70780;SDS011;59514;48.810;2.134;2022-07-30T03:08:19;4.50;;;2.28;;
70780;SDS011;59514;48.810;2.134;2022-07-30T03:10:45;2.08;;;1.88;;
70780;SDS011;59514;48.810;2.134;2022-07-30T03:13:12;2.47;;;1.75;;
70780;SDS011;59514;48.810;2.134;2022-07-30T03:15:40;1.70;;;1.60;;
70780;SDS011;59514;48.810;2.134;2022-07-30T03:18:09;2.58;;;1.88;;
70780;SDS011;59514;48.810;2.134;2022-07-30T03:20:37;3.65;;;1.40;;
70780;SDS011;59514;48.810;2.134;2022-07-30T03:23:04;3.63;;;1.98;;
70780;SDS011;59514;48.810;2.134;2022-07-30T03:25:31;3.28;;;1.95;;
70780;SDS011;59514;48.810;2.134;2022-07-30T03:27:59;6.80;;;2.22;;
70780;SDS011;59514;48.810;2.134;2022-07-30T03:30:26;5.05;;;2.40;;
70780;SDS011;59514;48.810;2.134;2022-07-30T03:32:53;6.38;;;2.40;;
70780;SDS011;59514;48.810;2.134;2022-07-30T03:35:20;4.32;;;2.08;;
70780;SDS011;59514;48.810;2.134;2022-07-30T03:37:48;5.05;;;1.92;;
70780;SDS011;59514;48.810;2.134;2022-07-30T03:40:15;2.53;;;1.90;;
70780;SDS011;59514;48.810;2.134;2022-07-30T03:42:42;6.45;;;2.50;;
70780;SDS011;59514;48.810;2.134;2022-07-30T03:45:09;3.97;;;2.13;;
70780;SDS011;59514;48.810;2.134;2022-07-30T03:47:38;2.83;;;2.03;;
70780;SDS011;59514;48.810;2.134;2022-07-30T03:50:06;4.90;;;2.13;;
70780;SDS011;59514;48.810;2.134;2022-07-30T03:52:32;2.35;;;1.80;;
70780;SDS011;59514;48.810;2.134;2022-07-30T03:54:59;3.22;;;1.90;;
70780;SDS011;59514;48.810;2.134;2022-07-30T03:57:26;3.65;;;2.05;;
70780;SDS011;59514;48.810;2.134;2022-07-30T03:59:52;4.60;;;2.10;;
70780;SDS011;59514;48.810;2.134;2022-07-30T04:02:17;5.15;;;2.25;;
70780;SDS011;59514;48.810;2.134;2022-07-30T04:04:43;3.97;;;2.00;;
70780;SDS011;59514;48.810;2.134;2022-07-30T04:07:09;2.63;;;2.13;;
70780;SDS011;59514;48.810;2.134;2022-07-30T04:09:34;3.53;;;2.10;;
70780;SDS011;59514;48.810;2.134;2022-07-30T04:12:00;2.67;;;2.13;;
70780;SDS011;59514;48.810;2.134;2022-07-30T04:14:25;4.18;;;1.98;;
70780;SDS011;59514;48.810;2.134;2022-07-30T04:17:04;3.67;;;2.25;;
70780;SDS011;59514;48.810;2.134;2022-07-30T04:19:41;4.78;;;1.88;;
70780;SDS011;59514;48.810;2.134;2022-07-30T04:22:11;5.35;;;2.58;;
70780;SDS011;59514;48.810;2.134;2022-07-30T04:24:37;2.53;;;2.10;;
70780;SDS011;59514;48.810;2.134;2022-07-30T04:27:06;3.00;;;1.92;;
70780;SDS011;59514;48.810;2.134;2022-07-30T04:29:32;2.63;;;2.28;;
70780;SDS011;59514;48.810;2.134;2022-07-30T04:31:59;2.55;;;2.10;;
70780;SDS011;59514;48.810;2.134;2022-07-30T04:34:25;2.70;;;2.35;;
70780;SDS011;59514;48.810;2.134;2022-07-30T04:36:50;5.07;;;2.53;;
70780;SDS011;59514;48.810;2.134;2022-07-30T04:39:15;3.10;;;2.53;;
70780;SDS011;59514;48.810;2.134;2022-07-30T04:41:41;5.97;;;2.80;;
70780;SDS011;59514;48.810;2.134;2022-07-30T04:44:06;3.00;;;2.60;;
70780;SDS011;59514;48.810;2.134;2022-07-30T04:46:31;4.30;;;2.60;;
70780;SDS011;59514;48.810;2.134;2022-07-30T04:48:57;2.95;;;2.63;;
70780;SDS011;59514;48.810;2.134;2022-07-30T04:51:24;3.45;;;2.60;;
70780;SDS011;59514;48.810;2.134;2022-07-30T04:53:52;3.30;;;2.58;;
70780;SDS011;59514;48.810;2.134;2022-07-30T04:56:19;3.90;;;2.33;;
70780;SDS011;59514;48.810;2.134;2022-07-30T04:58:46;3.55;;;2.60;;
70780;SDS011;59514;48.810;2.134;2022-07-30T05:01:14;4.63;;;2.35;;
70780;SDS011;59514;48.810;2.134;2022-07-30T05:03:43;4.20;;;2.35;;
70780;SDS011;59514;48.810;2.134;2022-07-30T05:06:10;4.30;;;2.33;;
70780;SDS011;59514;48.810;2.134;2022-07-30T05:08:36;4.72;;;2.38;;
70780;SDS011;59514;48.810;2.134;2022-07-30T05:11:02;2.75;;;2.40;;
70780;SDS011;59514;48.810;2.134;2022-07-30T05:13:28;4.00;;;2.35;;
70780;SDS011;59514;48.810;2.134;2022-07-30T05:15:53;3.72;;;2.47;;
70780;SDS011;59514;48.810;2.134;2022-07-30T05:18:19;2.58;;;2.10;;
70780;SDS011;59514;48.810;2.134;2022-07-30T05:20:44;4.20;;;2.28;;
70780;SDS011;59514;48.810;2.134;2022-07-30T05:23:10;4.40;;;2.70;;
70780;SDS011;59514;48.810;2.134;2022-07-30T05:25:35;4.68;;;2.67;;
70780;SDS011;59514;48.810;2.134;2022-07-30T05:28:01;3.85;;;2.38;;
70780;SDS011;59514;48.810;2.134;2022-07-30T05:30:26;3.85;;;2.42;;
70780;SDS011;59514;48.810;2.134;2022-07-30T05:32:51;3.97;;;2.33;;
70780;SDS011;59514;48.810;2.134;2022-07-30T05:35:17;3.60;;;2.55;;
70780;SDS011;59514;48.810;2.134;2022-07-30T05:37:42;3.83;;;2.30;;
70780;SDS011;59514;48.810;2.134;2022-07-30T05:40:08;5.00;;;2.45;;
70780;SDS011;59514;48.810;2.134;2022-07-30T05:42:34;3.50;;;2.35;;
70780;SDS011;59514;48.810;2.134;2022-07-30T05:44:59;6.10;;;2.30;;
70780;SDS011;59514;48.810;2.134;2022-07-30T05:47:24;4.00;;;2.50;;
70780;SDS011;59514;48.810;2.134;2022-07-30T05:49:50;5.18;;;2.45;;
70780;SDS011;59514;48.810;2.134;2022-07-30T05:52:16;3.15;;;1.98;;
70780;SDS011;59514;48.810;2.134;2022-07-30T05:54:41;3.15;;;2.08;;
70780;SDS011;59514;48.810;2.134;2022-07-30T05:57:07;4.03;;;2.40;;
70780;SDS011;59514;48.810;2.134;2022-07-30T05:59:32;3.45;;;2.33;;
70780;SDS011;59514;48.810;2.134;2022-07-30T06:01:57;4.15;;;2.33;;
70780;SDS011;59514;48.810;2.134;2022-07-30T06:04:22;5.43;;;3.00;;
70780;SDS011;59514;48.810;2.134;2022-07-30T06:06:48;3.22;;;2.30;;
70780;SDS011;59514;48.810;2.134;2022-07-30T06:09:13;4.65;;;2.72;;
70780;SDS011;59514;48.810;2.134;2022-07-30T06:11:39;3.40;;;2.60;;
70780;SDS011;59514;48.810;2.134;2022-07-30T06:14:04;3.72;;;2.45;;
70780;SDS011;59514;48.810;2.134;2022-07-30T06:16:29;4.00;;;2.33;;
70780;SDS011;59514;48.810;2.134;2022-07-30T06:18:55;5.53;;;2.30;;
70780;SDS011;59514;48.810;2.134;2022-07-30T06:21:20;4.38;;;2.38;;
70780;SDS011;59514;48.810;2.134;2022-07-30T06:23:46;3.03;;;2.22;;
70780;SDS011;59514;48.810;2.134;2022-07-30T06:26:11;4.13;;;2.20;;
70780;SDS011;59514;48.810;2.134;2022-07-30T06:28:37;2.75;;;2.03;;
70780;SDS011;59514;48.810;2.134;2022-07-30T06:31:03;3.78;;;2.10;;
70780;SDS011;59514;48.810;2.134;2022-07-30T06:33:28;3.05;;;1.98;;
70780;SDS011;59514;48.810;2.134;2022-07-30T06:35:54;3.58;;;2.30;;
70780;SDS011;59514;48.810;2.134;2022-07-30T06:38:19;4.32;;;2.47;;
70780;SDS011;59514;48.810;2.134;2022-07-30T06:40:44;6.35;;;2.40;;
70780;SDS011;59514;48.810;2.134;2022-07-30T06:43:10;3.05;;;2.35;;
70780;SDS011;59514;48.810;2.134;2022-07-30T06:45:35;4.20;;;2.60;;
70780;SDS011;59514;48.810;2.134;2022-07-30T06:48:00;3.28;;;2.42;;
70780;SDS011;59514;48.810;2.134;2022-07-30T06:50:26;5.05;;;2.20;;
70780;SDS011;59514;48.810;2.134;2022-07-30T06:52:51;3.47;;;2.33;;
70780;SDS011;59514;48.810;2.134;2022-07-30T06:55:17;3.30;;;2.15;;
70780;SDS011;59514;48.810;2.134;2022-07-30T06:57:43;3.30;;;2.28;;
70780;SDS011;59514;48.810;2.134;2022-07-30T07:00:08;2.40;;;2.20;;
70780;SDS011;59514;48.810;2.134;2022-07-30T07:02:34;4.97;;;2.47;;
70780;SDS011;59514;48.810;2.134;2022-07-30T07:05:00;4.40;;;2.22;;
70780;SDS011;59514;48.810;2.134;2022-07-30T07:07:25;2.95;;;2.10;;
70780;SDS011;59514;48.810;2.134;2022-07-30T07:09:51;3.80;;;2.30;;
70780;SDS011;59514;48.810;2.134;2022-07-30T07:12:16;4.68;;;2.20;;
70780;SDS011;59514;48.810;2.134;2022-07-30T07:14:41;3.10;;;2.30;;
70780;SDS011;59514;48.810;2.134;2022-07-30T07:17:07;4.60;;;1.95;;
70780;SDS011;59514;48.810;2.134;2022-07-30T07:19:32;2.72;;;2.13;;
70780;SDS011;59514;48.810;2.134;2022-07-30T07:21:58;5.43;;;2.22;;
70780;SDS011;59514;48.810;2.134;2022-07-30T07:24:23;2.50;;;1.85;;
70780;SDS011;59514;48.810;2.134;2022-07-30T07:26:48;3.40;;;2.20;;
70780;SDS011;59514;48.810;2.134;2022-07-30T07:29:14;4.55;;;2.42;;
70780;SDS011;59514;48.810;2.134;2022-07-30T07:31:39;4.22;;;1.83;;
70780;SDS011;59514;48.810;2.134;2022-07-30T07:34:04;6.13;;;2.17;;
70780;SDS011;59514;48.810;2.134;2022-07-30T07:36:30;2.78;;;2.30;;
70780;SDS011;59514;48.810;2.134;2022-07-30T07:38:55;4.53;;;2.20;;
70780;SDS011;59514;48.810;2.134;2022-07-30T07:41:21;3.95;;;2.45;;
70780;SDS011;59514;48.810;2.134;2022-07-30T07:43:46;6.63;;;1.90;;
70780;SDS011;59514;48.810;2.134;2022-07-30T07:46:12;2.42;;;2.15;;
70780;SDS011;59514;48.810;2.134;2022-07-30T07:48:40;4.35;;;2.03;;
70780;SDS011;59514;48.810;2.134;2022-07-30T07:51:06;7.53;;;2.55;;
70780;SDS011;59514;48.810;2.134;2022-07-30T07:53:32;5.22;;;2.08;;
70780;SDS011;59514;48.810;2.134;2022-07-30T07:55:57;5.20;;;2.45;;
70780;SDS011;59514;48.810;2.134;2022-07-30T07:58:23;3.83;;;2.42;;
70780;SDS011;59514;48.810;2.134;2022-07-30T08:00:49;2.53;;;1.80;;
70780;SDS011;59514;48.810;2.134;2022-07-30T08:03:14;3.83;;;2.00;;
70780;SDS011;59514;48.810;2.134;2022-07-30T08:05:40;5.03;;;2.35;;
70780;SDS011;59514;48.810;2.134;2022-07-30T08:08:05;2.47;;;1.75;;
70780;SDS011;59514;48.810;2.134;2022-07-30T08:10:30;3.13;;;1.77;;
70780;SDS011;59514;48.810;2.134;2022-07-30T08:12:56;4.03;;;2.03;;
70780;SDS011;59514;48.810;2.134;2022-07-30T08:15:21;3.65;;;2.22;;
70780;SDS011;59514;48.810;2.134;2022-07-30T08:17:47;5.47;;;1.92;;
70780;SDS011;59514;48.810;2.134;2022-07-30T08:20:13;2.70;;;1.70;;
70780;SDS011;59514;48.810;2.134;2022-07-30T08:22:40;2.75;;;1.52;;
70780;SDS011;59514;48.810;2.134;2022-07-30T08:25:06;7.70;;;1.65;;
70780;SDS011;59514;48.810;2.134;2022-07-30T08:27:32;2.42;;;1.80;;
70780;SDS011;59514;48.810;2.134;2022-07-30T08:29:57;4.47;;;1.88;;
70780;SDS011;59514;48.810;2.134;2022-07-30T08:32:23;3.42;;;1.38;;
70780;SDS011;59514;48.810;2.134;2022-07-30T08:34:48;5.10;;;2.00;;
70780;SDS011;59514;48.810;2.134;2022-07-30T08:37:14;2.72;;;1.85;;
70780;SDS011;59514;48.810;2.134;2022-07-30T08:39:39;2.13;;;1.75;;
70780;SDS011;59514;48.810;2.134;2022-07-30T08:42:05;2.78;;;1.60;;
70780;SDS011;59514;48.810;2.134;2022-07-30T08:44:31;5.00;;;1.90;;
70780;SDS011;59514;48.810;2.134;2022-07-30T08:46:59;2.58;;;1.55;;
70780;SDS011;59514;48.810;2.134;2022-07-30T08:49:25;4.22;;;1.63;;
70780;SDS011;59514;48.810;2.134;2022-07-30T08:51:52;1.55;;;1.40;;
70780;SDS011;59514;48.810;2.134;2022-07-30T08:54:18;2.85;;;1.50;;
70780;SDS011;59514;48.810;2.134;2022-07-30T08:56:43;3.30;;;1.45;;
70780;SDS011;59514;48.810;2.134;2022-07-30T08:59:09;1.60;;;1.30;;
70780;SDS011;59514;48.810;2.134;2022-07-30T09:01:35;3.45;;;1.63;;
70780;SDS011;59514;48.810;2.134;2022-07-30T09:04:00;3.30;;;1.60;;
70780;SDS011;59514;48.810;2.134;2022-07-30T09:06:26;3.10;;;1.55;;
70780;SDS011;59514;48.810;2.134;2022-07-30T09:08:51;2.30;;;1.40;;
70780;SDS011;59514;48.810;2.134;2022-07-30T09:11:17;3.00;;;1.20;;
70780;SDS011;59514;48.810;2.134;2022-07-30T09:13:42;2.38;;;1.10;;
70780;SDS011;59514;48.810;2.134;2022-07-30T09:16:24;2.85;;;1.20;;
70780;SDS011;59514;48.810;2.134;2022-07-30T09:21:26;1.95;;;1.20;;
70780;SDS011;59514;48.810;2.134;2022-07-30T09:24:06;2.72;;;1.63;;
70780;SDS011;59514;48.810;2.134;2022-07-30T09:29:24;3.33;;;1.58;;
70780;SDS011;59514;48.810;2.134;2022-07-30T09:34:23;2.78;;;1.25;;
70780;SDS011;59514;48.810;2.134;2022-07-30T09:36:50;3.58;;;1.10;;
70780;SDS011;59514;48.810;2.134;2022-07-30T09:39:26;1.42;;;1.30;;
70780;SDS011;59514;48.810;2.134;2022-07-30T09:42:03;3.88;;;1.35;;
70780;SDS011;59514;48.810;2.134;2022-07-30T09:44:40;4.38;;;1.58;;
70780;SDS011;59514;48.810;2.134;2022-07-30T09:47:05;4.90;;;1.55;;
70780;SDS011;59514;48.810;2.134;2022-07-30T09:49:31;1.92;;;1.20;;
70780;SDS011;59514;48.810;2.134;2022-07-30T09:51:56;2.65;;;1.23;;
70780;SDS011;59514;48.810;2.134;2022-07-30T09:54:22;3.53;;;1.48;;
70780;SDS011;59514;48.810;2.134;2022-07-30T09:56:59;2.45;;;1.35;;
70780;SDS011;59514;48.810;2.134;2022-07-30T09:59:28;2.17;;;1.27;;
70780;SDS011;59514;48.810;2.134;2022-07-30T10:01:55;4.07;;;1.27;;
70780;SDS011;59514;48.810;2.134;2022-07-30T10:04:24;1.42;;;1.30;;
70780;SDS011;59514;48.810;2.134;2022-07-30T10:06:55;4.55;;;1.52;;
70780;SDS011;59514;48.810;2.134;2022-07-30T10:09:25;2.28;;;1.35;;
70780;SDS011;59514;48.810;2.134;2022-07-30T10:11:56;3.70;;;1.30;;
70780;SDS011;59514;48.810;2.134;2022-07-30T10:14:23;2.13;;;1.40;;
70780;SDS011;59514;48.810;2.134;2022-07-30T10:16:52;2.33;;;1.40;;
70780;SDS011;59514;48.810;2.134;2022-07-30T10:19:18;2.25;;;1.40;;
70780;SDS011;59514;48.810;2.134;2022-07-30T10:21:44;1.75;;;1.33;;
70780;SDS011;59514;48.810;2.134;2022-07-30T10:24:10;4.78;;;1.40;;
70780;SDS011;59514;48.810;2.134;2022-07-30T10:26:36;3.90;;;1.35;;
70780;SDS011;59514;48.810;2.134;2022-07-30T10:29:02;2.88;;;1.55;;
70780;SDS011;59514;48.810;2.134;2022-07-30T10:31:28;6.70;;;1.40;;
70780;SDS011;59514;48.810;2.134;2022-07-30T10:33:55;3.08;;;1.33;;
70780;SDS011;59514;48.810;2.134;2022-07-30T10:36:21;1.88;;;1.48;;
70780;SDS011;59514;48.810;2.134;2022-07-30T10:38:48;1.98;;;1.30;;
70780;SDS011;59514;48.810;2.134;2022-07-30T10:41:40;3.47;;;1.20;;
70780;SDS011;59514;48.810;2.134;2022-07-30T10:47:13;2.75;;;1.27;;
70780;SDS011;59514;48.810;2.134;2022-07-30T10:50:02;3.75;;;1.23;;
70780;SDS011;59514;48.810;2.134;2022-07-30T10:52:44;3.13;;;1.33;;
70780;SDS011;59514;48.810;2.134;2022-07-30T10:55:15;3.33;;;1.40;;
70780;SDS011;59514;48.810;2.134;2022-07-30T10:57:58;1.77;;;1.17;;
70780;SDS011;59514;48.810;2.134;2022-07-30T11:03:15;4.15;;;1.90;;
70780;SDS011;59514;48.810;2.134;2022-07-30T11:05:48;2.78;;;1.20;;
70780;SDS011;59514;48.810;2.134;2022-07-30T11:08:58;3.28;;;1.35;;
70780;SDS011;59514;48.810;2.134;2022-07-30T11:11:41;3.45;;;1.35;;
70780;SDS011;59514;48.810;2.134;2022-07-30T11:14:00;1.73;;;1.00;;
70780;SDS011;59514;48.810;2.134;2022-07-30T11:19:10;2.00;;;1.45;;
70780;SDS011;59514;48.810;2.134;2022-07-30T11:21:48;3.03;;;1.00;;
70780;SDS011;59514;48.810;2.134;2022-07-30T11:25:09;2.60;;;1.38;;
70780;SDS011;59514;48.810;2.134;2022-07-30T11:27:56;3.10;;;1.27;;
70780;SDS011;59514;48.810;2.134;2022-07-30T11:32:53;1.67;;;1.02;;
70780;SDS011;59514;48.810;2.134;2022-07-30T11:35:29;3.08;;;1.30;;
70780;SDS011;59514;48.810;2.134;2022-07-30T11:40:35;1.38;;;1.20;;
70780;SDS011;59514;48.810;2.134;2022-07-30T11:45:52;2.28;;;1.02;;
70780;SDS011;59514;48.810;2.134;2022-07-30T11:48:28;2.70;;;1.20;;
70780;SDS011;59514;48.810;2.134;2022-07-30T11:50:54;1.98;;;1.17;;
70780;SDS011;59514;48.810;2.134;2022-07-30T11:53:19;2.83;;;1.10;;
70780;SDS011;59514;48.810;2.134;2022-07-30T11:55:49;1.17;;;0.80;;
70780;SDS011;59514;48.810;2.134;2022-07-30T11:58:26;3.65;;;1.17;;
70780;SDS011;59514;48.810;2.134;2022-07-30T12:00:56;2.75;;;1.17;;
70780;SDS011;59514;48.810;2.134;2022-07-30T12:03:25;3.67;;;1.15;;
70780;SDS011;59514;48.810;2.134;2022-07-30T12:05:51;1.63;;;1.00;;
70780;SDS011;59514;48.810;2.134;2022-07-30T12:08:16;2.97;;;1.15;;
70780;SDS011;59514;48.810;2.134;2022-07-30T12:10:42;2.38;;;0.98;;
70780;SDS011;59514;48.810;2.134;2022-07-30T12:13:18;2.45;;;1.35;;
70780;SDS011;59514;48.810;2.134;2022-07-30T12:15:44;4.93;;;1.20;;
70780;SDS011;59514;48.810;2.134;2022-07-30T12:18:11;3.03;;;1.45;;
70780;SDS011;59514;48.810;2.134;2022-07-30T12:20:40;1.92;;;1.08;;
70780;SDS011;59514;48.810;2.134;2022-07-30T12:23:10;3.55;;;1.08;;
70780;SDS011;59514;48.810;2.134;2022-07-30T12:25:40;2.35;;;1.17;;
70780;SDS011;59514;48.810;2.134;2022-07-30T12:28:09;2.00;;;1.30;;
70780;SDS011;59514;48.810;2.134;2022-07-30T12:30:38;3.03;;;1.17;;
70780;SDS011;59514;48.810;2.134;2022-07-30T12:33:05;1.35;;;1.20;;
70780;SDS011;59514;48.810;2.134;2022-07-30T12:38:20;2.65;;;0.98;;
70780;SDS011;59514;48.810;2.134;2022-07-30T12:41:02;1.80;;;1.08;;
70780;SDS011;59514;48.810;2.134;2022-07-30T12:51:13;4.10;;;1.17;;
70780;SDS011;59514;48.810;2.134;2022-07-30T12:53:38;2.25;;;1.00;;
70780;SDS011;59514;48.810;2.134;2022-07-30T12:56:14;1.73;;;0.90;;
70780;SDS011;59514;48.810;2.134;2022-07-30T12:58:44;1.57;;;1.00;;
70780;SDS011;59514;48.810;2.134;2022-07-30T13:01:10;2.25;;;0.98;;
70780;SDS011;59514;48.810;2.134;2022-07-30T13:03:36;2.60;;;0.90;;
70780;SDS011;59514;48.810;2.134;2022-07-30T13:06:11;1.67;;;1.17;;
70780;SDS011;59514;48.810;2.134;2022-07-30T13:08:44;4.28;;;1.30;;
70780;SDS011;59514;48.810;2.134;2022-07-30T13:11:11;1.15;;;0.80;;
70780;SDS011;59514;48.810;2.134;2022-07-30T13:13:37;1.25;;;0.93;;
70780;SDS011;59514;48.810;2.134;2022-07-30T13:16:03;2.20;;;1.02;;
70780;SDS011;59514;48.810;2.134;2022-07-30T13:18:31;1.55;;;1.00;;
70780;SDS011;59514;48.810;2.134;2022-07-30T13:20:57;1.83;;;1.20;;
70780;SDS011;59514;48.810;2.134;2022-07-30T13:23:23;2.78;;;1.10;;
70780;SDS011;59514;48.810;2.134;2022-07-30T13:25:49;1.35;;;0.90;;
70780;SDS011;59514;48.810;2.134;2022-07-30T13:28:15;1.58;;;1.13;;
70780;SDS011;59514;48.810;2.134;2022-07-30T13:30:41;2.30;;;1.77;;
70780;SDS011;59514;48.810;2.134;2022-07-30T13:33:07;1.60;;;0.93;;
70780;SDS011;59514;48.810;2.134;2022-07-30T13:35:33;1.92;;;0.77;;
70780;SDS011;59514;48.810;2.134;2022-07-30T13:37:58;2.50;;;0.93;;
70780;SDS011;59514;48.810;2.134;2022-07-30T13:40:25;1.15;;;0.73;;
70780;SDS011;59514;48.810;2.134;2022-07-30T13:42:50;1.15;;;0.85;;
70780;SDS011;59514;48.810;2.134;2022-07-30T13:45:16;2.43;;;1.47;;
70780;SDS011;59514;48.810;2.134;2022-07-30T13:47:41;1.30;;;0.97;;
70780;SDS011;59514;48.810;2.134;2022-07-30T13:50:07;1.67;;;0.90;;
70780;SDS011;59514;48.810;2.134;2022-07-30T13:52:32;2.55;;;1.25;;
70780;SDS011;59514;48.810;2.134;2022-07-30T13:54:58;2.47;;;1.00;;
70780;SDS011;59514;48.810;2.134;2022-07-30T13:57:23;3.53;;;1.13;;
70780;SDS011;59514;48.810;2.134;2022-07-30T13:59:49;1.60;;;0.90;;
70780;SDS011;59514;48.810;2.134;2022-07-30T14:02:14;2.47;;;0.90;;
70780;SDS011;59514;48.810;2.134;2022-07-30T14:04:39;1.55;;;1.00;;
70780;SDS011;59514;48.810;2.134;2022-07-30T14:07:05;2.47;;;1.00;;
70780;SDS011;59514;48.810;2.134;2022-07-30T14:09:30;1.70;;;1.10;;
70780;SDS011;59514;48.810;2.134;2022-07-30T14:11:55;1.42;;;1.20;;
70780;SDS011;59514;48.810;2.134;2022-07-30T14:14:21;3.60;;;1.20;;
70780;SDS011;59514;48.810;2.134;2022-07-30T14:16:47;3.75;;;1.00;;
70780;SDS011;59514;48.810;2.134;2022-07-30T14:19:14;4.65;;;1.15;;
70780;SDS011;59514;48.810;2.134;2022-07-30T14:21:40;1.20;;;1.10;;
70780;SDS011;59514;48.810;2.134;2022-07-30T14:24:06;1.23;;;1.02;;
70780;SDS011;59514;48.810;2.134;2022-07-30T14:26:31;1.67;;;1.08;;
70780;SDS011;59514;48.810;2.134;2022-07-30T14:28:57;2.05;;;1.10;;
70780;SDS011;59514;48.810;2.134;2022-07-30T14:31:23;1.75;;;1.13;;
70780;SDS011;59514;48.810;2.134;2022-07-30T14:33:48;2.35;;;0.85;;
70780;SDS011;59514;48.810;2.134;2022-07-30T14:36:13;2.22;;;1.23;;
70780;SDS011;59514;48.810;2.134;2022-07-30T14:38:39;2.25;;;1.23;;
70780;SDS011;59514;48.810;2.134;2022-07-30T14:41:05;1.73;;;1.10;;
70780;SDS011;59514;48.810;2.134;2022-07-30T14:43:31;2.30;;;1.10;;
70780;SDS011;59514;48.810;2.134;2022-07-30T14:45:56;1.60;;;0.90;;
70780;SDS011;59514;48.810;2.134;2022-07-30T14:48:21;2.90;;;0.90;;
70780;SDS011;59514;48.810;2.134;2022-07-30T14:50:47;1.52;;;0.90;;
70780;SDS011;59514;48.810;2.134;2022-07-30T14:53:12;1.87;;;1.10;;
70780;SDS011;59514;48.810;2.134;2022-07-30T14:55:38;1.45;;;1.10;;
70780;SDS011;59514;48.810;2.134;2022-07-30T14:58:03;1.33;;;0.90;;
70780;SDS011;59514;48.810;2.134;2022-07-30T15:00:28;3.37;;;1.10;;
70780;SDS011;59514;48.810;2.134;2022-07-30T15:02:54;2.70;;;1.10;;
70780;SDS011;59514;48.810;2.134;2022-07-30T15:05:19;1.75;;;1.02;;
70780;SDS011;59514;48.810;2.134;2022-07-30T15:07:45;2.83;;;1.27;;
70780;SDS011;59514;48.810;2.134;2022-07-30T15:10:10;3.07;;;1.00;;
70780;SDS011;59514;48.810;2.134;2022-07-30T15:12:35;1.80;;;1.10;;
70780;SDS011;59514;48.810;2.134;2022-07-30T15:15:01;1.75;;;1.08;;
70780;SDS011;59514;48.810;2.134;2022-07-30T15:17:26;1.23;;;1.00;;
70780;SDS011;59514;48.810;2.134;2022-07-30T15:19:51;2.53;;;1.00;;
70780;SDS011;59514;48.810;2.134;2022-07-30T15:22:17;2.85;;;1.30;;
70780;SDS011;59514;48.810;2.134;2022-07-30T15:24:44;2.60;;;1.08;;
70780;SDS011;59514;48.810;2.134;2022-07-30T15:27:09;3.97;;;1.10;;